Impacts TAF Board INFO
FOR SITUATIONAL AWARENESS. NOT TO BE USED FOR FLIGHT PLANNING PURPOSES.
IDs:

KSAN - San Diego Intl Arpt, CA, US

Issued at 0527 UTC 24 Nov 2017
Updated at 0723 UTC 24 Nov 2017
Potential Impact None Slight Moderate High
Time<<25/08Z 25/09Z 25/10Z 25/11Z 25/12Z 25/13Z 25/14Z 25/15Z 25/16Z 25/17Z 25/18Z 25/19Z 25/20Z
Type PRVL PRVL PRVL PRVL
VIS 3 3 3 3
CIG -- -- -- --
Cover SCT SCT SCT SCT
FltCat MVFR MVFR MVFR MVFR
WX BR VCFG BR VCFG BR VCFG BR VCFG
WDir VRB VRB VRB VRB
WSpd 4 4 4 4
WGst -- -- -- --

Raw TAF
KSAN 240527Z 2406/2512 VRB04KT P6SM SCT200
  FM242000 28010KT P6SM SCT200
  FM250100 VRB04KT P6SM FEW003 SCT200
  FM250700 VRB04KT 3SM BR VCFG SCT003 SCT200


METAR Board
Radar Display
Forecast Discussion

FOR SITUATIONAL AWARENESS. NOT TO BE USED FOR FLIGHT PLANNING PURPOSES.